sensor_id;sensor_type;location;lat;lon;timestamp;P1;durP1;ratioP1;P2;durP2;ratioP2
79243;SDS011;68672;42.676;23.356;2023-04-09T00:02:15;12.70;;;8.88;;
79243;SDS011;68672;42.676;23.356;2023-04-09T00:04:40;13.43;;;10.10;;
79243;SDS011;68672;42.676;23.356;2023-04-09T00:07:06;15.70;;;10.10;;
79243;SDS011;68672;42.676;23.356;2023-04-09T00:09:31;13.88;;;10.05;;
79243;SDS011;68672;42.676;23.356;2023-04-09T00:12:00;13.98;;;9.65;;
79243;SDS011;68672;42.676;23.356;2023-04-09T00:14:26;14.90;;;10.70;;
79243;SDS011;68672;42.676;23.356;2023-04-09T00:16:51;13.30;;;9.30;;
79243;SDS011;68672;42.676;23.356;2023-04-09T00:19:20;13.82;;;9.52;;
79243;SDS011;68672;42.676;23.356;2023-04-09T00:21:45;14.20;;;10.10;;
79243;SDS011;68672;42.676;23.356;2023-04-09T00:24:12;14.30;;;11.27;;
79243;SDS011;68672;42.676;23.356;2023-04-09T00:26:40;13.18;;;9.73;;
79243;SDS011;68672;42.676;23.356;2023-04-09T00:29:06;15.10;;;10.23;;
79243;SDS011;68672;42.676;23.356;2023-04-09T00:31:31;11.45;;;8.90;;
79243;SDS011;68672;42.676;23.356;2023-04-09T00:33:57;15.07;;;9.63;;
79243;SDS011;68672;42.676;23.356;2023-04-09T00:36:22;13.18;;;9.90;;
79243;SDS011;68672;42.676;23.356;2023-04-09T00:38:49;13.90;;;11.00;;
79243;SDS011;68672;42.676;23.356;2023-04-09T00:41:16;13.90;;;10.27;;
79243;SDS011;68672;42.676;23.356;2023-04-09T00:44:03;13.30;;;9.13;;
79243;SDS011;68672;42.676;23.356;2023-04-09T00:46:28;12.43;;;9.93;;
79243;SDS011;68672;42.676;23.356;2023-04-09T00:48:55;13.90;;;9.82;;
79243;SDS011;68672;42.676;23.356;2023-04-09T00:51:30;12.10;;;9.07;;
79243;SDS011;68672;42.676;23.356;2023-04-09T00:53:55;14.00;;;8.90;;
79243;SDS011;68672;42.676;23.356;2023-04-09T00:56:21;14.23;;;10.38;;
79243;SDS011;68672;42.676;23.356;2023-04-09T00:58:48;11.82;;;9.57;;
79243;SDS011;68672;42.676;23.356;2023-04-09T01:01:13;12.93;;;8.85;;
79243;SDS011;68672;42.676;23.356;2023-04-09T01:03:39;11.75;;;8.57;;
79243;SDS011;68672;42.676;23.356;2023-04-09T01:06:07;13.93;;;9.65;;
79243;SDS011;68672;42.676;23.356;2023-04-09T01:08:40;11.93;;;8.15;;
79243;SDS011;68672;42.676;23.356;2023-04-09T01:13:56;11.25;;;8.57;;
79243;SDS011;68672;42.676;23.356;2023-04-09T01:16:28;11.95;;;8.25;;
79243;SDS011;68672;42.676;23.356;2023-04-09T01:19:02;11.98;;;8.75;;
79243;SDS011;68672;42.676;23.356;2023-04-09T01:21:45;12.93;;;8.77;;
79243;SDS011;68672;42.676;23.356;2023-04-09T01:29:32;12.25;;;9.15;;
79243;SDS011;68672;42.676;23.356;2023-04-09T01:32:12;13.48;;;9.00;;
79243;SDS011;68672;42.676;23.356;2023-04-09T01:34:41;12.38;;;8.77;;
79243;SDS011;68672;42.676;23.356;2023-04-09T01:37:08;10.02;;;7.55;;
79243;SDS011;68672;42.676;23.356;2023-04-09T01:39:35;13.57;;;9.52;;
79243;SDS011;68672;42.676;23.356;2023-04-09T01:42:04;11.13;;;8.23;;
79243;SDS011;68672;42.676;23.356;2023-04-09T01:44:33;11.23;;;8.63;;
79243;SDS011;68672;42.676;23.356;2023-04-09T01:47:03;11.07;;;8.40;;
79243;SDS011;68672;42.676;23.356;2023-04-09T01:49:28;13.82;;;10.00;;
79243;SDS011;68672;42.676;23.356;2023-04-09T01:51:57;11.77;;;9.45;;
79243;SDS011;68672;42.676;23.356;2023-04-09T01:54:26;13.68;;;9.75;;
79243;SDS011;68672;42.676;23.356;2023-04-09T01:56:51;11.40;;;8.68;;
79243;SDS011;68672;42.676;23.356;2023-04-09T01:59:17;12.15;;;9.30;;
79243;SDS011;68672;42.676;23.356;2023-04-09T02:01:46;11.45;;;8.27;;
79243;SDS011;68672;42.676;23.356;2023-04-09T02:04:23;12.60;;;9.38;;
79243;SDS011;68672;42.676;23.356;2023-04-09T02:09:29;12.25;;;9.75;;
79243;SDS011;68672;42.676;23.356;2023-04-09T02:11:58;12.80;;;9.27;;
79243;SDS011;68672;42.676;23.356;2023-04-09T02:14:27;11.35;;;9.00;;
79243;SDS011;68672;42.676;23.356;2023-04-09T02:17:00;11.85;;;9.15;;
79243;SDS011;68672;42.676;23.356;2023-04-09T02:22:04;11.50;;;9.30;;
79243;SDS011;68672;42.676;23.356;2023-04-09T02:24:30;12.55;;;9.32;;
79243;SDS011;68672;42.676;23.356;2023-04-09T02:26:55;13.27;;;9.35;;
79243;SDS011;68672;42.676;23.356;2023-04-09T02:29:21;12.57;;;9.23;;
79243;SDS011;68672;42.676;23.356;2023-04-09T02:31:49;12.52;;;9.15;;
79243;SDS011;68672;42.676;23.356;2023-04-09T02:34:18;12.70;;;9.50;;
79243;SDS011;68672;42.676;23.356;2023-04-09T02:36:44;12.82;;;8.98;;
79243;SDS011;68672;42.676;23.356;2023-04-09T02:39:09;15.38;;;9.80;;
79243;SDS011;68672;42.676;23.356;2023-04-09T02:41:35;13.43;;;8.90;;
79243;SDS011;68672;42.676;23.356;2023-04-09T02:44:00;12.90;;;9.60;;
79243;SDS011;68672;42.676;23.356;2023-04-09T02:46:26;11.43;;;9.23;;
79243;SDS011;68672;42.676;23.356;2023-04-09T02:48:51;13.43;;;10.25;;
79243;SDS011;68672;42.676;23.356;2023-04-09T02:51:16;13.82;;;9.98;;
79243;SDS011;68672;42.676;23.356;2023-04-09T02:53:42;11.90;;;9.40;;
79243;SDS011;68672;42.676;23.356;2023-04-09T02:56:09;12.55;;;9.38;;
79243;SDS011;68672;42.676;23.356;2023-04-09T02:58:35;14.38;;;10.00;;
79243;SDS011;68672;42.676;23.356;2023-04-09T03:01:00;12.63;;;9.93;;
79243;SDS011;68672;42.676;23.356;2023-04-09T03:03:26;13.10;;;9.75;;
79243;SDS011;68672;42.676;23.356;2023-04-09T03:05:51;14.80;;;10.45;;
79243;SDS011;68672;42.676;23.356;2023-04-09T03:08:16;16.83;;;10.77;;
79243;SDS011;68672;42.676;23.356;2023-04-09T03:10:42;14.05;;;9.70;;
79243;SDS011;68672;42.676;23.356;2023-04-09T03:13:07;13.55;;;10.50;;
79243;SDS011;68672;42.676;23.356;2023-04-09T03:15:33;14.75;;;10.55;;
79243;SDS011;68672;42.676;23.356;2023-04-09T03:17:58;15.45;;;10.90;;
79243;SDS011;68672;42.676;23.356;2023-04-09T03:20:23;14.63;;;10.35;;
79243;SDS011;68672;42.676;23.356;2023-04-09T03:22:49;16.17;;;9.77;;
79243;SDS011;68672;42.676;23.356;2023-04-09T03:25:14;15.68;;;10.68;;
79243;SDS011;68672;42.676;23.356;2023-04-09T03:27:40;15.20;;;10.75;;
79243;SDS011;68672;42.676;23.356;2023-04-09T03:30:08;14.27;;;9.20;;
79243;SDS011;68672;42.676;23.356;2023-04-09T03:32:34;14.00;;;9.70;;
79243;SDS011;68672;42.676;23.356;2023-04-09T03:34:59;12.80;;;9.95;;
79243;SDS011;68672;42.676;23.356;2023-04-09T03:37:25;15.43;;;10.05;;
79243;SDS011;68672;42.676;23.356;2023-04-09T03:39:50;15.20;;;10.35;;
79243;SDS011;68672;42.676;23.356;2023-04-09T03:42:15;15.07;;;10.25;;
79243;SDS011;68672;42.676;23.356;2023-04-09T03:44:41;13.48;;;10.02;;
79243;SDS011;68672;42.676;23.356;2023-04-09T03:47:09;16.13;;;10.63;;
79243;SDS011;68672;42.676;23.356;2023-04-09T03:49:34;16.13;;;11.07;;
79243;SDS011;68672;42.676;23.356;2023-04-09T03:52:00;17.00;;;10.55;;
79243;SDS011;68672;42.676;23.356;2023-04-09T03:54:29;16.95;;;10.48;;
79243;SDS011;68672;42.676;23.356;2023-04-09T03:56:57;16.63;;;10.85;;
79243;SDS011;68672;42.676;23.356;2023-04-09T03:59:23;16.48;;;10.85;;
79243;SDS011;68672;42.676;23.356;2023-04-09T04:01:48;18.77;;;10.45;;
79243;SDS011;68672;42.676;23.356;2023-04-09T04:04:14;15.35;;;10.90;;
79243;SDS011;68672;42.676;23.356;2023-04-09T04:06:45;18.83;;;11.10;;
79243;SDS011;68672;42.676;23.356;2023-04-09T04:09:11;16.70;;;11.40;;
79243;SDS011;68672;42.676;23.356;2023-04-09T04:11:36;17.70;;;10.75;;
79243;SDS011;68672;42.676;23.356;2023-04-09T04:14:03;17.95;;;11.55;;
79243;SDS011;68672;42.676;23.356;2023-04-09T04:16:28;17.30;;;11.90;;
79243;SDS011;68672;42.676;23.356;2023-04-09T04:18:53;18.90;;;13.23;;
79243;SDS011;68672;42.676;23.356;2023-04-09T04:21:19;18.45;;;11.82;;
79243;SDS011;68672;42.676;23.356;2023-04-09T04:23:46;16.40;;;12.27;;
79243;SDS011;68672;42.676;23.356;2023-04-09T04:26:12;17.20;;;12.32;;
79243;SDS011;68672;42.676;23.356;2023-04-09T04:28:38;20.27;;;11.75;;
79243;SDS011;68672;42.676;23.356;2023-04-09T04:31:10;18.45;;;12.10;;
79243;SDS011;68672;42.676;23.356;2023-04-09T04:33:36;18.42;;;12.77;;
79243;SDS011;68672;42.676;23.356;2023-04-09T04:36:10;20.85;;;12.93;;
79243;SDS011;68672;42.676;23.356;2023-04-09T04:41:02;18.00;;;12.80;;
79243;SDS011;68672;42.676;23.356;2023-04-09T04:43:27;22.50;;;13.43;;
79243;SDS011;68672;42.676;23.356;2023-04-09T04:45:53;19.42;;;13.07;;
79243;SDS011;68672;42.676;23.356;2023-04-09T04:48:19;21.75;;;12.18;;
79243;SDS011;68672;42.676;23.356;2023-04-09T04:50:45;18.95;;;12.13;;
79243;SDS011;68672;42.676;23.356;2023-04-09T04:53:13;20.75;;;12.07;;
79243;SDS011;68672;42.676;23.356;2023-04-09T04:55:39;18.58;;;12.63;;
79243;SDS011;68672;42.676;23.356;2023-04-09T04:58:04;18.55;;;11.88;;
79243;SDS011;68672;42.676;23.356;2023-04-09T05:00:30;23.50;;;14.07;;
79243;SDS011;68672;42.676;23.356;2023-04-09T05:02:56;21.17;;;13.90;;
79243;SDS011;68672;42.676;23.356;2023-04-09T05:05:21;20.25;;;13.32;;
79243;SDS011;68672;42.676;23.356;2023-04-09T05:07:46;20.30;;;13.55;;
79243;SDS011;68672;42.676;23.356;2023-04-09T05:10:12;22.73;;;13.98;;
79243;SDS011;68672;42.676;23.356;2023-04-09T05:12:37;21.35;;;14.20;;
79243;SDS011;68672;42.676;23.356;2023-04-09T05:15:03;23.65;;;13.73;;
79243;SDS011;68672;42.676;23.356;2023-04-09T05:17:29;23.58;;;14.15;;
79243;SDS011;68672;42.676;23.356;2023-04-09T05:19:57;21.08;;;13.98;;
79243;SDS011;68672;42.676;23.356;2023-04-09T05:22:22;22.17;;;13.27;;
79243;SDS011;68672;42.676;23.356;2023-04-09T05:24:48;20.23;;;13.43;;
79243;SDS011;68672;42.676;23.356;2023-04-09T05:27:13;20.60;;;14.25;;
79243;SDS011;68672;42.676;23.356;2023-04-09T05:29:39;21.60;;;13.05;;
79243;SDS011;68672;42.676;23.356;2023-04-09T05:32:04;17.85;;;12.52;;
79243;SDS011;68672;42.676;23.356;2023-04-09T05:34:33;18.80;;;12.30;;
79243;SDS011;68672;42.676;23.356;2023-04-09T05:37:02;21.08;;;12.85;;
79243;SDS011;68672;42.676;23.356;2023-04-09T05:39:27;19.17;;;13.15;;
79243;SDS011;68672;42.676;23.356;2023-04-09T05:41:52;19.85;;;11.30;;
79243;SDS011;68672;42.676;23.356;2023-04-09T05:44:18;20.38;;;11.88;;
79243;SDS011;68672;42.676;23.356;2023-04-09T05:46:44;20.20;;;11.70;;
79243;SDS011;68672;42.676;23.356;2023-04-09T05:49:10;19.40;;;11.18;;
79243;SDS011;68672;42.676;23.356;2023-04-09T05:51:35;21.85;;;12.43;;
79243;SDS011;68672;42.676;23.356;2023-04-09T05:54:01;16.83;;;11.45;;
79243;SDS011;68672;42.676;23.356;2023-04-09T05:56:27;17.92;;;11.32;;
79243;SDS011;68672;42.676;23.356;2023-04-09T05:58:52;19.00;;;11.52;;
79243;SDS011;68672;42.676;23.356;2023-04-09T06:01:18;20.02;;;11.75;;
79243;SDS011;68672;42.676;23.356;2023-04-09T06:03:44;20.50;;;10.90;;
79243;SDS011;68672;42.676;23.356;2023-04-09T06:06:09;17.83;;;10.32;;
79243;SDS011;68672;42.676;23.356;2023-04-09T06:08:34;18.45;;;11.13;;
79243;SDS011;68672;42.676;23.356;2023-04-09T06:11:00;18.33;;;10.55;;
79243;SDS011;68672;42.676;23.356;2023-04-09T06:13:26;18.13;;;12.32;;
79243;SDS011;68672;42.676;23.356;2023-04-09T06:15:51;16.20;;;11.05;;
79243;SDS011;68672;42.676;23.356;2023-04-09T06:18:17;18.77;;;11.48;;
79243;SDS011;68672;42.676;23.356;2023-04-09T06:20:42;16.88;;;10.45;;
79243;SDS011;68672;42.676;23.356;2023-04-09T06:23:07;16.23;;;9.82;;
79243;SDS011;68672;42.676;23.356;2023-04-09T06:25:34;20.00;;;10.70;;
79243;SDS011;68672;42.676;23.356;2023-04-09T06:28:00;14.48;;;9.70;;
79243;SDS011;68672;42.676;23.356;2023-04-09T06:30:27;16.80;;;11.10;;
79243;SDS011;68672;42.676;23.356;2023-04-09T06:32:52;15.95;;;10.38;;
79243;SDS011;68672;42.676;23.356;2023-04-09T06:35:18;15.60;;;10.52;;
79243;SDS011;68672;42.676;23.356;2023-04-09T06:37:43;17.00;;;10.15;;
79243;SDS011;68672;42.676;23.356;2023-04-09T06:40:09;17.40;;;10.95;;
79243;SDS011;68672;42.676;23.356;2023-04-09T06:42:35;17.13;;;11.68;;
79243;SDS011;68672;42.676;23.356;2023-04-09T06:45:00;15.23;;;11.70;;
79243;SDS011;68672;42.676;23.356;2023-04-09T06:47:26;16.00;;;10.75;;
79243;SDS011;68672;42.676;23.356;2023-04-09T06:49:51;14.57;;;10.35;;
79243;SDS011;68672;42.676;23.356;2023-04-09T06:52:16;15.55;;;10.18;;
79243;SDS011;68672;42.676;23.356;2023-04-09T06:54:42;15.52;;;10.80;;
79243;SDS011;68672;42.676;23.356;2023-04-09T06:57:07;17.42;;;10.20;;
79243;SDS011;68672;42.676;23.356;2023-04-09T06:59:33;15.98;;;11.55;;
79243;SDS011;68672;42.676;23.356;2023-04-09T07:01:58;16.85;;;9.57;;
79243;SDS011;68672;42.676;23.356;2023-04-09T07:04:24;13.48;;;9.52;;
79243;SDS011;68672;42.676;23.356;2023-04-09T07:06:50;15.95;;;10.48;;
79243;SDS011;68672;42.676;23.356;2023-04-09T07:09:19;14.40;;;9.98;;
79243;SDS011;68672;42.676;23.356;2023-04-09T07:11:44;14.77;;;9.48;;
79243;SDS011;68672;42.676;23.356;2023-04-09T07:14:10;11.68;;;8.48;;
79243;SDS011;68672;42.676;23.356;2023-04-09T07:16:36;12.88;;;9.48;;
79243;SDS011;68672;42.676;23.356;2023-04-09T07:19:01;14.15;;;10.68;;
79243;SDS011;68672;42.676;23.356;2023-04-09T07:21:27;15.07;;;10.10;;
79243;SDS011;68672;42.676;23.356;2023-04-09T07:23:53;11.75;;;8.40;;
79243;SDS011;68672;42.676;23.356;2023-04-09T07:26:18;10.88;;;8.25;;
79243;SDS011;68672;42.676;23.356;2023-04-09T07:28:44;12.02;;;8.77;;
79243;SDS011;68672;42.676;23.356;2023-04-09T07:31:09;12.45;;;9.38;;
79243;SDS011;68672;42.676;23.356;2023-04-09T07:33:35;11.10;;;8.18;;
79243;SDS011;68672;42.676;23.356;2023-04-09T07:36:01;13.23;;;8.38;;
79243;SDS011;68672;42.676;23.356;2023-04-09T07:38:27;13.05;;;8.52;;
79243;SDS011;68672;42.676;23.356;2023-04-09T07:40:53;11.13;;;8.05;;
79243;SDS011;68672;42.676;23.356;2023-04-09T07:43:19;13.25;;;9.32;;
79243;SDS011;68672;42.676;23.356;2023-04-09T07:45:47;13.55;;;8.57;;
79243;SDS011;68672;42.676;23.356;2023-04-09T07:48:12;13.18;;;8.25;;
79243;SDS011;68672;42.676;23.356;2023-04-09T07:50:38;13.13;;;8.95;;
79243;SDS011;68672;42.676;23.356;2023-04-09T07:53:03;12.48;;;9.40;;
79243;SDS011;68672;42.676;23.356;2023-04-09T07:55:29;13.30;;;8.23;;
79243;SDS011;68672;42.676;23.356;2023-04-09T07:57:54;10.68;;;7.95;;
79243;SDS011;68672;42.676;23.356;2023-04-09T08:00:20;14.43;;;9.50;;
79243;SDS011;68672;42.676;23.356;2023-04-09T08:02:45;13.10;;;8.93;;
79243;SDS011;68672;42.676;23.356;2023-04-09T08:05:13;12.55;;;8.88;;
79243;SDS011;68672;42.676;23.356;2023-04-09T08:07:39;14.45;;;9.35;;
79243;SDS011;68672;42.676;23.356;2023-04-09T08:10:04;12.05;;;8.25;;
79243;SDS011;68672;42.676;23.356;2023-04-09T08:12:30;11.48;;;8.70;;
79243;SDS011;68672;42.676;23.356;2023-04-09T08:14:56;11.65;;;8.07;;
79243;SDS011;68672;42.676;23.356;2023-04-09T08:17:21;11.55;;;8.30;;
79243;SDS011;68672;42.676;23.356;2023-04-09T08:19:47;13.57;;;8.93;;
79243;SDS011;68672;42.676;23.356;2023-04-09T08:22:16;14.80;;;9.20;;
79243;SDS011;68672;42.676;23.356;2023-04-09T08:24:41;14.57;;;9.20;;
79243;SDS011;68672;42.676;23.356;2023-04-09T08:27:11;12.65;;;8.35;;
79243;SDS011;68672;42.676;23.356;2023-04-09T08:29:36;12.45;;;9.20;;
79243;SDS011;68672;42.676;23.356;2023-04-09T08:32:03;14.27;;;8.95;;
79243;SDS011;68672;42.676;23.356;2023-04-09T08:34:28;12.48;;;9.18;;
79243;SDS011;68672;42.676;23.356;2023-04-09T08:36:54;14.48;;;8.93;;
79243;SDS011;68672;42.676;23.356;2023-04-09T08:39:19;12.77;;;8.93;;
79243;SDS011;68672;42.676;23.356;2023-04-09T08:41:45;12.35;;;8.43;;
79243;SDS011;68672;42.676;23.356;2023-04-09T08:44:12;12.30;;;9.00;;
79243;SDS011;68672;42.676;23.356;2023-04-09T08:46:38;13.95;;;9.05;;
79243;SDS011;68672;42.676;23.356;2023-04-09T08:49:03;13.30;;;8.43;;
79243;SDS011;68672;42.676;23.356;2023-04-09T08:51:28;12.55;;;8.95;;
79243;SDS011;68672;42.676;23.356;2023-04-09T08:53:56;14.02;;;8.77;;
79243;SDS011;68672;42.676;23.356;2023-04-09T08:56:23;12.70;;;8.98;;
79243;SDS011;68672;42.676;23.356;2023-04-09T08:58:49;12.98;;;8.80;;
79243;SDS011;68672;42.676;23.356;2023-04-09T09:01:24;12.88;;;8.65;;
79243;SDS011;68672;42.676;23.356;2023-04-09T09:03:55;16.63;;;10.10;;
79243;SDS011;68672;42.676;23.356;2023-04-09T09:06:36;12.73;;;9.43;;
79243;SDS011;68672;42.676;23.356;2023-04-09T09:09:06;14.35;;;9.75;;
79243;SDS011;68672;42.676;23.356;2023-04-09T09:11:42;12.85;;;9.05;;
79243;SDS011;68672;42.676;23.356;2023-04-09T09:14:08;11.50;;;8.35;;
79243;SDS011;68672;42.676;23.356;2023-04-09T09:16:37;14.75;;;10.05;;
79243;SDS011;68672;42.676;23.356;2023-04-09T09:19:07;12.63;;;8.93;;
79243;SDS011;68672;42.676;23.356;2023-04-09T09:21:54;14.25;;;9.35;;
79243;SDS011;68672;42.676;23.356;2023-04-09T09:24:23;12.75;;;9.82;;
79243;SDS011;68672;42.676;23.356;2023-04-09T09:26:52;12.70;;;8.82;;
79243;SDS011;68672;42.676;23.356;2023-04-09T09:29:24;13.27;;;9.65;;
79243;SDS011;68672;42.676;23.356;2023-04-09T09:31:53;13.10;;;8.73;;
79243;SDS011;68672;42.676;23.356;2023-04-09T09:34:20;12.88;;;9.32;;
79243;SDS011;68672;42.676;23.356;2023-04-09T09:36:47;13.68;;;8.10;;
79243;SDS011;68672;42.676;23.356;2023-04-09T09:39:13;12.82;;;9.65;;
79243;SDS011;68672;42.676;23.356;2023-04-09T09:41:41;12.90;;;8.50;;
79243;SDS011;68672;42.676;23.356;2023-04-09T09:44:08;12.43;;;8.40;;
79243;SDS011;68672;42.676;23.356;2023-04-09T09:46:35;12.20;;;8.65;;
79243;SDS011;68672;42.676;23.356;2023-04-09T09:49:02;13.55;;;8.88;;
79243;SDS011;68672;42.676;23.356;2023-04-09T09:51:28;11.35;;;8.05;;
79243;SDS011;68672;42.676;23.356;2023-04-09T09:53:56;10.98;;;7.82;;
79243;SDS011;68672;42.676;23.356;2023-04-09T09:56:23;11.32;;;7.70;;
79243;SDS011;68672;42.676;23.356;2023-04-09T10:01:55;13.88;;;8.73;;
79243;SDS011;68672;42.676;23.356;2023-04-09T10:04:25;9.90;;;7.30;;
79243;SDS011;68672;42.676;23.356;2023-04-09T10:06:53;9.90;;;8.32;;
79243;SDS011;68672;42.676;23.356;2023-04-09T10:09:21;11.50;;;7.68;;
79243;SDS011;68672;42.676;23.356;2023-04-09T10:11:47;9.93;;;7.78;;
79243;SDS011;68672;42.676;23.356;2023-04-09T10:14:13;10.90;;;7.70;;
79243;SDS011;68672;42.676;23.356;2023-04-09T10:16:40;10.45;;;7.57;;
79243;SDS011;68672;42.676;23.356;2023-04-09T10:19:06;8.63;;;7.15;;
79243;SDS011;68672;42.676;23.356;2023-04-09T10:21:39;11.68;;;7.95;;
79243;SDS011;68672;42.676;23.356;2023-04-09T10:24:08;10.70;;;7.78;;
79243;SDS011;68672;42.676;23.356;2023-04-09T10:26:34;9.43;;;6.75;;
79243;SDS011;68672;42.676;23.356;2023-04-09T10:29:04;8.15;;;6.68;;
79243;SDS011;68672;42.676;23.356;2023-04-09T10:34:19;8.70;;;7.07;;
79243;SDS011;68672;42.676;23.356;2023-04-09T10:36:52;8.75;;;6.70;;
79243;SDS011;68672;42.676;23.356;2023-04-09T10:39:26;10.65;;;6.90;;
79243;SDS011;68672;42.676;23.356;2023-04-09T10:41:54;7.80;;;6.65;;
79243;SDS011;68672;42.676;23.356;2023-04-09T10:44:25;10.18;;;7.97;;
79243;SDS011;68672;42.676;23.356;2023-04-09T10:46:52;10.57;;;7.65;;
79243;SDS011;68672;42.676;23.356;2023-04-09T10:49:19;9.82;;;7.70;;
79243;SDS011;68672;42.676;23.356;2023-04-09T10:51:53;9.18;;;7.43;;
79243;SDS011;68672;42.676;23.356;2023-04-09T10:59:33;7.00;;;6.30;;
79243;SDS011;68672;42.676;23.356;2023-04-09T11:02:03;8.60;;;6.50;;
79243;SDS011;68672;42.676;23.356;2023-04-09T11:04:51;7.78;;;6.95;;
79243;SDS011;68672;42.676;23.356;2023-04-09T11:07:37;9.07;;;6.82;;
79243;SDS011;68672;42.676;23.356;2023-04-09T11:10:06;9.13;;;7.18;;
79243;SDS011;68672;42.676;23.356;2023-04-09T11:12:32;8.65;;;7.18;;
79243;SDS011;68672;42.676;23.356;2023-04-09T11:14:57;9.93;;;7.65;;
79243;SDS011;68672;42.676;23.356;2023-04-09T11:17:23;7.72;;;6.82;;
79243;SDS011;68672;42.676;23.356;2023-04-09T11:19:49;9.93;;;7.20;;
79243;SDS011;68672;42.676;23.356;2023-04-09T11:22:17;10.95;;;7.82;;
79243;SDS011;68672;42.676;23.356;2023-04-09T11:24:43;8.55;;;6.93;;
79243;SDS011;68672;42.676;23.356;2023-04-09T11:27:10;10.20;;;6.55;;
79243;SDS011;68672;42.676;23.356;2023-04-09T11:29:36;10.43;;;8.13;;
79243;SDS011;68672;42.676;23.356;2023-04-09T11:32:02;10.77;;;7.90;;
79243;SDS011;68672;42.676;23.356;2023-04-09T11:34:32;10.00;;;7.20;;
79243;SDS011;68672;42.676;23.356;2023-04-09T11:36:58;10.63;;;7.75;;
79243;SDS011;68672;42.676;23.356;2023-04-09T11:39:31;8.63;;;6.63;;
79243;SDS011;68672;42.676;23.356;2023-04-09T11:41:56;9.57;;;8.15;;
79243;SDS011;68672;42.676;23.356;2023-04-09T11:44:22;9.43;;;7.07;;
79243;SDS011;68672;42.676;23.356;2023-04-09T11:46:47;10.38;;;8.43;;
79243;SDS011;68672;42.676;23.356;2023-04-09T11:49:14;9.27;;;7.38;;
79243;SDS011;68672;42.676;23.356;2023-04-09T11:51:40;9.20;;;7.15;;
79243;SDS011;68672;42.676;23.356;2023-04-09T11:54:06;10.43;;;6.63;;
79243;SDS011;68672;42.676;23.356;2023-04-09T11:56:33;8.25;;;6.30;;
79243;SDS011;68672;42.676;23.356;2023-04-09T11:59:00;9.02;;;6.70;;
79243;SDS011;68672;42.676;23.356;2023-04-09T12:01:30;7.30;;;5.90;;
79243;SDS011;68672;42.676;23.356;2023-04-09T12:03:57;7.93;;;5.82;;
79243;SDS011;68672;42.676;23.356;2023-04-09T12:06:23;6.70;;;5.05;;
79243;SDS011;68672;42.676;23.356;2023-04-09T12:08:55;8.30;;;5.65;;
79243;SDS011;68672;42.676;23.356;2023-04-09T12:13:59;8.13;;;5.40;;
79243;SDS011;68672;42.676;23.356;2023-04-09T12:16:31;5.95;;;4.72;;
79243;SDS011;68672;42.676;23.356;2023-04-09T12:19:07;6.05;;;5.15;;
79243;SDS011;68672;42.676;23.356;2023-04-09T12:21:55;7.07;;;5.70;;
79243;SDS011;68672;42.676;23.356;2023-04-09T12:24:22;8.38;;;5.88;;
79243;SDS011;68672;42.676;23.356;2023-04-09T12:26:49;7.97;;;6.13;;
79243;SDS011;68672;42.676;23.356;2023-04-09T12:29:16;7.47;;;6.28;;
79243;SDS011;68672;42.676;23.356;2023-04-09T12:31:44;7.82;;;6.15;;
79243;SDS011;68672;42.676;23.356;2023-04-09T12:34:09;7.15;;;5.75;;
79243;SDS011;68672;42.676;23.356;2023-04-09T12:36:37;7.70;;;5.97;;
79243;SDS011;68672;42.676;23.356;2023-04-09T12:39:03;7.18;;;5.53;;
79243;SDS011;68672;42.676;23.356;2023-04-09T12:41:29;5.85;;;5.25;;
79243;SDS011;68672;42.676;23.356;2023-04-09T12:43:55;7.65;;;6.20;;
79243;SDS011;68672;42.676;23.356;2023-04-09T12:46:24;6.30;;;5.32;;
79243;SDS011;68672;42.676;23.356;2023-04-09T12:48:49;7.53;;;5.57;;
79243;SDS011;68672;42.676;23.356;2023-04-09T12:51:15;5.88;;;4.78;;
79243;SDS011;68672;42.676;23.356;2023-04-09T12:53:40;6.72;;;5.65;;
79243;SDS011;68672;42.676;23.356;2023-04-09T12:56:06;5.80;;;5.18;;
79243;SDS011;68672;42.676;23.356;2023-04-09T12:58:32;6.35;;;5.70;;
79243;SDS011;68672;42.676;23.356;2023-04-09T13:00:57;7.30;;;5.65;;
79243;SDS011;68672;42.676;23.356;2023-04-09T13:03:23;6.00;;;4.97;;
79243;SDS011;68672;42.676;23.356;2023-04-09T13:05:49;5.72;;;4.93;;
79243;SDS011;68672;42.676;23.356;2023-04-09T13:08:17;5.55;;;4.95;;
79243;SDS011;68672;42.676;23.356;2023-04-09T13:10:43;6.90;;;5.32;;
79243;SDS011;68672;42.676;23.356;2023-04-09T13:13:08;7.72;;;6.07;;
79243;SDS011;68672;42.676;23.356;2023-04-09T13:15:37;8.73;;;6.75;;
79243;SDS011;68672;42.676;23.356;2023-04-09T13:18:03;7.38;;;5.38;;
79243;SDS011;68672;42.676;23.356;2023-04-09T13:20:28;7.05;;;5.53;;
79243;SDS011;68672;42.676;23.356;2023-04-09T13:22:54;6.32;;;4.82;;
79243;SDS011;68672;42.676;23.356;2023-04-09T13:25:22;6.90;;;5.47;;
79243;SDS011;68672;42.676;23.356;2023-04-09T13:27:48;7.60;;;5.80;;
79243;SDS011;68672;42.676;23.356;2023-04-09T13:30:13;7.72;;;5.55;;
79243;SDS011;68672;42.676;23.356;2023-04-09T13:32:42;8.55;;;5.75;;
79243;SDS011;68672;42.676;23.356;2023-04-09T13:35:07;6.70;;;5.28;;
79243;SDS011;68672;42.676;23.356;2023-04-09T13:37:34;6.95;;;5.18;;
79243;SDS011;68672;42.676;23.356;2023-04-09T13:39:59;9.27;;;5.75;;
79243;SDS011;68672;42.676;23.356;2023-04-09T13:42:25;7.65;;;6.05;;
79243;SDS011;68672;42.676;23.356;2023-04-09T13:44:51;6.47;;;5.20;;
79243;SDS011;68672;42.676;23.356;2023-04-09T13:47:17;7.80;;;5.97;;
79243;SDS011;68672;42.676;23.356;2023-04-09T13:49:43;6.95;;;5.63;;
79243;SDS011;68672;42.676;23.356;2023-04-09T13:52:13;6.57;;;5.85;;
79243;SDS011;68672;42.676;23.356;2023-04-09T13:54:39;6.25;;;4.90;;
79243;SDS011;68672;42.676;23.356;2023-04-09T13:57:05;6.65;;;5.30;;
79243;SDS011;68672;42.676;23.356;2023-04-09T13:59:30;8.57;;;5.78;;
79243;SDS011;68672;42.676;23.356;2023-04-09T14:01:56;6.20;;;5.20;;
79243;SDS011;68672;42.676;23.356;2023-04-09T14:04:21;6.90;;;5.90;;
79243;SDS011;68672;42.676;23.356;2023-04-09T14:06:50;6.70;;;5.57;;
79243;SDS011;68672;42.676;23.356;2023-04-09T14:09:15;7.50;;;5.90;;
79243;SDS011;68672;42.676;23.356;2023-04-09T14:11:40;8.98;;;6.25;;
79243;SDS011;68672;42.676;23.356;2023-04-09T14:14:08;7.85;;;6.05;;
79243;SDS011;68672;42.676;23.356;2023-04-09T14:16:39;7.70;;;6.00;;
79243;SDS011;68672;42.676;23.356;2023-04-09T14:19:05;7.97;;;6.03;;
79243;SDS011;68672;42.676;23.356;2023-04-09T14:21:31;8.02;;;6.43;;
79243;SDS011;68672;42.676;23.356;2023-04-09T14:23:57;7.63;;;6.50;;
79243;SDS011;68672;42.676;23.356;2023-04-09T14:26:25;6.05;;;5.45;;
79243;SDS011;68672;42.676;23.356;2023-04-09T14:28:55;6.95;;;5.80;;
79243;SDS011;68672;42.676;23.356;2023-04-09T14:31:21;6.88;;;5.43;;
79243;SDS011;68672;42.676;23.356;2023-04-09T14:33:47;7.90;;;5.72;;
79243;SDS011;68672;42.676;23.356;2023-04-09T14:36:12;7.10;;;6.40;;
79243;SDS011;68672;42.676;23.356;2023-04-09T14:38:38;6.85;;;5.95;;
79243;SDS011;68672;42.676;23.356;2023-04-09T14:41:03;6.95;;;5.65;;
79243;SDS011;68672;42.676;23.356;2023-04-09T14:43:29;8.32;;;6.03;;
79243;SDS011;68672;42.676;23.356;2023-04-09T14:45:57;8.05;;;6.80;;
79243;SDS011;68672;42.676;23.356;2023-04-09T14:48:30;7.43;;;5.70;;
79243;SDS011;68672;42.676;23.356;2023-04-09T14:50:55;7.68;;;5.70;;